createdAt,value
2019-05-21T00:00:41.145Z,11.90
2019-05-21T00:03:10.006Z,12.00
2019-05-21T00:05:38.874Z,11.57
2019-05-21T00:08:07.782Z,11.03
2019-05-21T00:10:36.697Z,9.57
2019-05-21T00:13:05.550Z,9.37
2019-05-21T00:15:34.452Z,8.77
2019-05-21T00:18:03.319Z,9.20
2019-05-21T00:20:32.215Z,11.33
2019-05-21T00:23:01.058Z,10.77
2019-05-21T00:25:29.974Z,12.10
2019-05-21T00:28:11.502Z,12.57
2019-05-21T00:30:58.120Z,13.53
2019-05-21T00:33:44.728Z,14.00
2019-05-21T00:36:32.471Z,13.47
2019-05-21T00:39:18.783Z,14.43
2019-05-21T00:42:05.239Z,15.50
2019-05-21T00:44:35.502Z,16.03
2019-05-21T00:47:05.293Z,16.17
2019-05-21T00:49:34.152Z,17.50
2019-05-21T00:52:07.827Z,17.43
2019-05-21T00:54:33.540Z,17.20
2019-05-21T00:57:02.427Z,17.17
2019-05-21T00:59:31.275Z,18.03
2019-05-21T01:02:00.182Z,18.57
2019-05-21T01:04:29.051Z,21.90
2019-05-21T01:06:57.935Z,22.33
2019-05-21T01:09:26.888Z,25.37
2019-05-21T01:11:55.768Z,24.97
2019-05-21T01:14:24.621Z,27.20
2019-05-21T01:16:53.529Z,25.97
2019-05-21T01:19:22.375Z,27.10
2019-05-21T01:21:51.282Z,28.27
2019-05-21T01:24:20.160Z,26.10
2019-05-21T01:26:49.038Z,26.30
2019-05-21T01:29:17.892Z,26.20
2019-05-21T01:31:46.784Z,24.10
2019-05-21T01:34:15.673Z,22.87
2019-05-21T01:36:44.557Z,21.20
2019-05-21T01:39:13.413Z,19.53
2019-05-21T01:41:42.286Z,20.37
2019-05-21T01:44:11.230Z,19.07
2019-05-21T01:46:40.151Z,21.03
2019-05-21T01:49:09.005Z,19.17
2019-05-21T01:51:37.879Z,19.27
2019-05-21T01:54:06.733Z,19.37
2019-05-21T01:56:35.591Z,20.00
2019-05-21T01:59:04.701Z,19.13
2019-05-21T02:01:33.567Z,19.10
2019-05-21T02:04:02.447Z,16.40
2019-05-21T02:06:31.277Z,15.03
2019-05-21T02:09:00.167Z,16.13
2019-05-21T02:11:29.037Z,14.87
2019-05-21T02:13:57.898Z,16.00
2019-05-21T02:16:26.749Z,15.77
2019-05-21T02:18:55.632Z,15.57
2019-05-21T02:21:24.484Z,15.83
2019-05-21T02:23:53.359Z,16.70
2019-05-21T02:26:22.202Z,17.13
2019-05-21T02:28:51.155Z,18.73
2019-05-21T02:31:20.014Z,17.93
2019-05-21T02:33:48.887Z,18.03
2019-05-21T02:36:17.737Z,16.63
2019-05-21T02:38:46.629Z,14.90
2019-05-21T02:41:15.503Z,13.20
2019-05-21T02:43:44.410Z,13.70
2019-05-21T02:46:13.251Z,16.30
2019-05-21T02:48:42.177Z,15.63
2019-05-21T02:51:11.026Z,15.53
2019-05-21T02:53:40.007Z,14.93
2019-05-21T02:56:08.850Z,14.27
2019-05-21T02:58:37.732Z,13.57
2019-05-21T03:01:28.393Z,12.17
2019-05-21T03:03:57.260Z,12.57
2019-05-21T03:06:26.114Z,10.90
2019-05-21T03:08:54.984Z,10.70
2019-05-21T03:11:23.875Z,11.27
2019-05-21T03:13:52.859Z,11.47
2019-05-21T03:16:21.709Z,12.90
2019-05-21T03:18:50.572Z,12.70
2019-05-21T03:21:19.415Z,14.43
2019-05-21T03:23:48.327Z,14.20
2019-05-21T03:26:17.171Z,14.20
2019-05-21T03:28:46.044Z,14.00
2019-05-21T03:31:14.894Z,14.47
2019-05-21T03:33:43.768Z,14.50
2019-05-21T03:36:29.714Z,14.57
2019-05-21T03:38:43.160Z,16.93
2019-05-21T03:41:12.008Z,15.97
2019-05-21T03:43:40.915Z,15.00
2019-05-21T03:46:09.824Z,15.10
2019-05-21T03:48:38.707Z,13.57
2019-05-21T03:51:07.577Z,14.53
2019-05-21T03:53:36.458Z,14.70
2019-05-21T03:56:05.306Z,14.43
2019-05-21T03:58:34.209Z,15.43
2019-05-21T04:01:03.066Z,15.57
2019-05-21T04:03:31.951Z,15.63
2019-05-21T04:06:00.818Z,14.80
2019-05-21T04:08:29.674Z,15.27
2019-05-21T04:10:58.544Z,15.53
2019-05-21T04:13:27.454Z,14.03
2019-05-21T04:16:05.298Z,13.43
2019-05-21T04:18:38.910Z,13.73
2019-05-21T04:21:07.794Z,13.07
2019-05-21T04:23:36.642Z,12.40
2019-05-21T04:26:05.511Z,12.63
2019-05-21T04:28:34.484Z,13.50
2019-05-21T04:31:03.369Z,13.30
2019-05-21T04:33:32.227Z,13.67
2019-05-21T04:36:01.102Z,13.53
2019-05-21T04:38:29.974Z,13.60
2019-05-21T04:40:58.949Z,13.67
2019-05-21T04:43:27.834Z,13.27
2019-05-21T04:45:56.756Z,13.67
2019-05-21T04:48:25.610Z,12.70
2019-05-21T04:50:54.591Z,12.90
2019-05-21T04:53:23.429Z,12.73
2019-05-21T04:55:52.326Z,11.57
2019-05-21T04:58:21.217Z,14.67
2019-05-21T05:00:50.183Z,11.40
2019-05-21T05:03:19.031Z,10.93
2019-05-21T05:05:47.928Z,9.97
2019-05-21T05:08:16.847Z,11.50
2019-05-21T05:10:45.740Z,9.57
2019-05-21T05:13:14.587Z,9.87
2019-05-21T05:15:43.544Z,9.50
2019-05-21T05:18:12.421Z,8.53
2019-05-21T05:20:41.306Z,8.83
2019-05-21T05:23:10.134Z,9.70
2019-05-21T05:25:39.029Z,9.17
2019-05-21T05:28:07.863Z,8.80
2019-05-21T05:30:36.740Z,9.10
2019-05-21T05:33:05.592Z,8.13
2019-05-21T05:35:34.471Z,8.33
2019-05-21T05:38:03.346Z,7.00
2019-05-21T05:40:32.207Z,8.30
2019-05-21T05:43:01.071Z,8.43
2019-05-21T05:45:29.976Z,8.30
2019-05-21T05:47:58.825Z,8.67
2019-05-21T05:50:30.692Z,8.60
2019-05-21T05:52:59.541Z,9.00
2019-05-21T05:55:28.402Z,9.27
2019-05-21T05:57:57.263Z,12.67
2019-05-21T06:00:26.475Z,11.93
2019-05-21T06:02:55.370Z,11.03
2019-05-21T06:05:24.215Z,11.93
2019-05-21T06:07:59.614Z,12.70
2019-05-21T06:10:23.630Z,13.10
2019-05-21T06:12:52.608Z,13.07
2019-05-21T06:15:22.621Z,13.40
2019-05-21T06:17:51.603Z,13.20
2019-05-21T06:20:20.562Z,14.73
2019-05-21T06:22:49.439Z,15.57
2019-05-21T06:25:19.401Z,15.27
2019-05-21T06:27:48.315Z,16.33
2019-05-21T06:30:18.720Z,16.37
2019-05-21T06:32:47.623Z,17.07
2019-05-21T06:35:16.650Z,16.77
2019-05-21T06:37:45.532Z,18.00
2019-05-21T06:40:14.466Z,18.73
2019-05-21T06:42:43.376Z,17.53
2019-05-21T06:45:12.598Z,18.03
2019-05-21T06:47:41.483Z,17.70
2019-05-21T06:50:10.522Z,18.57
2019-05-21T06:52:39.432Z,19.50
2019-05-21T06:55:08.380Z,18.73
2019-05-21T06:57:37.285Z,18.00
2019-05-21T07:00:06.581Z,17.03
2019-05-21T07:02:35.466Z,17.03
2019-05-21T07:05:04.326Z,19.60
2019-05-21T07:07:33.224Z,17.97
2019-05-21T07:10:02.077Z,19.33
2019-05-21T07:12:30.952Z,17.43
2019-05-21T07:14:59.807Z,17.30
2019-05-21T07:17:28.731Z,16.80
2019-05-21T07:19:57.584Z,18.37
2019-05-21T07:22:26.496Z,17.30
2019-05-21T07:24:55.345Z,17.37
2019-05-21T07:27:24.219Z,18.13
2019-05-21T07:29:53.123Z,18.80
2019-05-21T07:32:22.011Z,18.20
2019-05-21T07:34:51.006Z,18.77
2019-05-21T07:37:19.964Z,17.93
2019-05-21T07:39:48.778Z,18.20
2019-05-21T07:42:17.676Z,19.23
2019-05-21T07:44:46.630Z,19.77
2019-05-21T07:47:15.512Z,20.30
2019-05-21T07:49:44.369Z,18.90
2019-05-21T07:52:13.250Z,23.00
2019-05-21T07:54:42.104Z,22.30
2019-05-21T07:57:10.985Z,20.73
2019-05-21T07:59:39.849Z,21.77
2019-05-21T08:02:08.736Z,22.73
2019-05-21T08:04:37.603Z,21.43
2019-05-21T08:07:06.486Z,20.77
2019-05-21T08:09:35.328Z,20.50
2019-05-21T08:12:27.507Z,20.47
2019-05-21T08:14:34.797Z,19.73
2019-05-21T08:17:03.713Z,18.80
2019-05-21T08:19:32.590Z,19.13
2019-05-21T08:22:01.443Z,18.47
2019-05-21T08:24:30.317Z,17.50
2019-05-21T08:26:59.225Z,16.33
2019-05-21T08:29:28.104Z,22.43
2019-05-21T08:31:56.950Z,20.20
2019-05-21T08:34:25.826Z,16.33
2019-05-21T08:36:54.700Z,15.63
2019-05-21T08:39:28.791Z,16.43
2019-05-21T08:41:54.080Z,16.33
2019-05-21T08:44:23.007Z,15.73
2019-05-21T08:46:51.862Z,14.90
2019-05-21T08:49:20.718Z,15.77
2019-05-21T08:51:49.600Z,14.03
2019-05-21T08:54:37.500Z,15.23
2019-05-21T08:57:06.398Z,14.60
2019-05-21T08:59:35.287Z,13.60
2019-05-21T09:02:04.245Z,13.23
2019-05-21T09:04:45.824Z,12.90
2019-05-21T09:07:03.695Z,13.53
2019-05-21T09:09:48.599Z,12.73
2019-05-21T09:12:03.084Z,10.93
2019-05-21T09:14:31.986Z,12.43
2019-05-21T09:17:00.879Z,12.57
2019-05-21T09:19:29.766Z,12.53
2019-05-21T09:21:58.620Z,12.30
2019-05-21T09:24:27.491Z,11.53
2019-05-21T09:26:56.421Z,12.40
2019-05-21T09:29:25.305Z,12.97
2019-05-21T09:31:54.152Z,11.73
2019-05-21T09:34:23.030Z,12.50
2019-05-21T09:36:51.912Z,12.53
2019-05-21T09:39:20.805Z,12.20
2019-05-21T09:41:49.667Z,12.20
2019-05-21T09:44:18.593Z,12.20
2019-05-21T09:46:47.437Z,11.60
2019-05-21T09:49:16.321Z,14.17
2019-05-21T09:51:45.178Z,14.40
2019-05-21T09:54:15.039Z,14.67
2019-05-21T09:56:43.869Z,15.13
2019-05-21T09:59:23.172Z,16.17
2019-05-21T10:01:53.027Z,14.57
2019-05-21T10:04:22.027Z,15.13
2019-05-21T10:06:50.951Z,14.20
2019-05-21T10:09:20.163Z,15.03
2019-05-21T10:11:49.016Z,15.27
2019-05-21T10:14:17.902Z,13.73
2019-05-21T10:16:46.774Z,13.53
2019-05-21T10:19:15.691Z,14.47
2019-05-21T10:21:44.557Z,15.00
2019-05-21T10:24:13.459Z,15.23
2019-05-21T10:26:42.295Z,14.00
2019-05-21T10:29:11.227Z,14.17
2019-05-21T10:31:40.075Z,12.37
2019-05-21T10:34:12.714Z,12.30
2019-05-21T10:36:39.527Z,10.60
2019-05-21T10:39:08.485Z,10.73
2019-05-21T10:41:37.354Z,9.57
2019-05-21T10:44:06.360Z,9.93
2019-05-21T10:46:35.352Z,10.67
2019-05-21T10:49:04.310Z,12.97
2019-05-21T10:51:33.201Z,9.07
2019-05-21T10:54:02.196Z,9.60
2019-05-21T10:56:46.668Z,15.80
2019-05-21T10:59:01.675Z,9.80
2019-05-21T11:01:47.486Z,9.30
2019-05-21T11:04:24.295Z,9.37
2019-05-21T11:06:53.157Z,9.83
2019-05-21T11:09:23.096Z,9.27
2019-05-21T11:11:51.972Z,9.93
2019-05-21T11:14:20.836Z,8.93
2019-05-21T11:16:49.673Z,8.90
2019-05-21T11:19:18.528Z,10.37
2019-05-21T11:21:47.403Z,9.27
2019-05-21T11:24:16.345Z,10.10
2019-05-21T11:26:45.266Z,10.50
2019-05-21T11:29:14.108Z,10.30
2019-05-21T11:31:55.787Z,10.60
2019-05-21T11:34:13.688Z,10.57
2019-05-21T11:36:42.562Z,10.77
2019-05-21T11:39:11.604Z,9.90
2019-05-21T11:41:40.515Z,10.00
2019-05-21T11:44:09.401Z,11.30
2019-05-21T11:46:38.339Z,10.20
2019-05-21T11:49:07.249Z,10.90
2019-05-21T11:51:36.081Z,10.23
2019-05-21T11:54:05.044Z,10.30
2019-05-21T11:56:36.147Z,10.23
2019-05-21T11:59:04.522Z,9.50
2019-05-21T12:01:33.491Z,10.40
2019-05-21T12:04:02.343Z,9.73
2019-05-21T12:06:31.402Z,9.77
2019-05-21T12:09:00.216Z,10.47
2019-05-21T12:11:29.109Z,10.27
2019-05-21T12:13:57.991Z,10.40
2019-05-21T12:16:26.883Z,11.40
2019-05-21T12:18:55.806Z,10.43
2019-05-21T12:21:24.670Z,11.43
2019-05-21T12:23:53.554Z,12.87
2019-05-21T12:26:22.441Z,13.50
2019-05-21T12:28:51.485Z,12.40
2019-05-21T12:31:20.489Z,12.53
2019-05-21T12:33:49.346Z,12.10
2019-05-21T12:36:18.234Z,11.40
2019-05-21T12:38:47.092Z,11.60
2019-05-21T12:41:15.970Z,11.97
2019-05-21T12:43:44.845Z,12.03
2019-05-21T12:46:13.731Z,12.90
2019-05-21T12:48:42.601Z,14.77
2019-05-21T12:51:11.483Z,13.13
2019-05-21T12:53:40.342Z,14.07
2019-05-21T12:56:09.315Z,13.23
2019-05-21T12:58:38.211Z,12.57
2019-05-21T13:01:07.099Z,14.10
2019-05-21T13:03:36.015Z,11.73
2019-05-21T13:06:04.912Z,11.70
2019-05-21T13:08:33.810Z,11.47
2019-05-21T13:11:02.730Z,11.13
2019-05-21T13:13:31.584Z,9.03
2019-05-21T13:16:00.458Z,8.80
2019-05-21T13:18:29.295Z,8.80
2019-05-21T13:20:58.181Z,8.93
2019-05-21T13:23:27.086Z,9.20
2019-05-21T13:25:55.958Z,9.03
2019-05-21T13:28:24.799Z,8.70
2019-05-21T13:30:53.668Z,8.27
2019-05-21T13:33:22.552Z,8.77
2019-05-21T13:35:51.432Z,8.47
2019-05-21T13:38:20.291Z,8.20
2019-05-21T13:40:49.571Z,8.03
2019-05-21T13:43:21.232Z,7.33
2019-05-21T13:45:48.979Z,7.30
2019-05-21T13:48:17.819Z,7.70
2019-05-21T13:50:46.699Z,7.13
2019-05-21T13:53:15.606Z,6.73
2019-05-21T13:55:44.825Z,6.90
2019-05-21T13:58:13.824Z,7.13
2019-05-21T14:00:50.401Z,6.13
2019-05-21T14:03:19.280Z,5.57
2019-05-21T14:05:48.145Z,5.60
2019-05-21T14:08:17.088Z,4.53
2019-05-21T14:10:46.025Z,3.77
2019-05-21T14:13:14.905Z,3.50
2019-05-21T14:15:43.755Z,3.77
2019-05-21T14:18:12.635Z,3.93
2019-05-21T14:20:41.512Z,4.53
2019-05-21T14:23:10.406Z,4.50
2019-05-21T14:25:39.315Z,4.37
2019-05-21T14:28:08.180Z,3.87
2019-05-21T14:30:37.041Z,4.07
2019-05-21T14:33:05.922Z,3.80
2019-05-21T14:35:34.834Z,3.57
2019-05-21T14:38:03.716Z,3.70
2019-05-21T14:40:32.994Z,3.50
2019-05-21T14:43:02.017Z,2.90
2019-05-21T14:45:34.076Z,3.30
2019-05-21T14:48:01.456Z,2.97
2019-05-21T14:50:30.303Z,3.47
2019-05-21T14:52:59.175Z,3.20
2019-05-21T14:55:28.045Z,3.10
2019-05-21T14:57:58.820Z,3.13
2019-05-21T15:00:33.579Z,3.17
2019-05-21T15:03:02.543Z,3.37
2019-05-21T15:05:31.395Z,3.33
2019-05-21T15:08:00.268Z,3.93
2019-05-21T15:10:29.152Z,3.13
2019-05-21T15:12:58.064Z,3.60
2019-05-21T15:15:26.968Z,3.73
2019-05-21T15:17:55.860Z,3.73
2019-05-21T15:20:48.362Z,3.90
2019-05-21T15:23:17.366Z,4.23
2019-05-21T15:25:46.211Z,5.23
2019-05-21T15:28:15.085Z,5.40
2019-05-21T15:30:43.935Z,6.27
2019-05-21T15:33:12.827Z,7.30
2019-05-21T15:35:41.700Z,8.53
2019-05-21T15:38:10.584Z,9.17
2019-05-21T15:40:39.415Z,8.93
2019-05-21T15:43:08.315Z,10.53
2019-05-21T15:45:37.184Z,12.73
2019-05-21T15:48:06.070Z,11.87
2019-05-21T15:50:34.908Z,14.33
2019-05-21T15:53:03.866Z,15.40
2019-05-21T15:55:33.317Z,15.43
2019-05-21T15:58:02.200Z,15.47
2019-05-21T16:00:31.061Z,16.43
2019-05-21T16:02:59.957Z,17.43
2019-05-21T16:05:28.899Z,17.10
2019-05-21T16:07:57.778Z,16.87
2019-05-21T16:10:26.633Z,17.87
2019-05-21T16:12:55.511Z,18.93
2019-05-21T16:15:24.448Z,18.83
2019-05-21T16:17:53.351Z,18.83
2019-05-21T16:20:22.197Z,20.10
2019-05-21T16:22:51.097Z,20.30
2019-05-21T16:25:19.934Z,19.43
2019-05-21T16:27:48.845Z,19.70
2019-05-21T16:30:17.682Z,21.30
2019-05-21T16:32:46.564Z,20.70
2019-05-21T16:35:15.551Z,20.57
2019-05-21T16:37:44.439Z,19.53
2019-05-21T16:40:13.609Z,19.40
2019-05-21T16:42:42.523Z,18.83
2019-05-21T16:45:11.631Z,19.93
2019-05-21T16:47:46.222Z,19.30
2019-05-21T16:50:11.194Z,18.00
2019-05-21T16:52:40.066Z,18.13
2019-05-21T16:55:09.081Z,18.73
2019-05-21T16:57:37.935Z,17.93
2019-05-21T17:00:07.926Z,19.20
2019-05-21T17:02:36.823Z,19.40
2019-05-21T17:05:05.862Z,18.57
2019-05-21T17:07:34.773Z,19.47
2019-05-21T17:10:05.234Z,18.97
2019-05-21T17:12:34.086Z,17.63
2019-05-21T17:15:02.984Z,18.07
2019-05-21T17:17:31.857Z,19.20
2019-05-21T17:20:00.812Z,18.13
2019-05-21T17:22:29.714Z,18.23
2019-05-21T17:24:58.607Z,19.47
2019-05-21T17:27:27.485Z,18.10
2019-05-21T17:29:56.363Z,18.63
2019-05-21T17:32:25.249Z,19.43
2019-05-21T17:34:54.267Z,18.50
2019-05-21T17:37:23.126Z,19.10
2019-05-21T17:39:52.067Z,18.87
2019-05-21T17:42:20.879Z,20.00
2019-05-21T17:44:49.812Z,20.17
2019-05-21T17:47:18.865Z,21.37
2019-05-21T17:49:47.838Z,20.03
2019-05-21T17:52:16.682Z,19.60
2019-05-21T17:54:56.203Z,18.67
2019-05-21T17:57:16.052Z,21.07
2019-05-21T17:59:44.932Z,19.27
2019-05-21T18:02:14.002Z,19.60
2019-05-21T18:04:43.061Z,19.07
2019-05-21T18:07:12.105Z,21.80
2019-05-21T18:09:41.209Z,20.03
2019-05-21T18:12:11.719Z,20.33
2019-05-21T18:14:40.735Z,20.93
2019-05-21T18:17:13.499Z,20.90
2019-05-21T18:19:42.476Z,20.33
2019-05-21T18:22:12.397Z,21.23
2019-05-21T18:24:41.390Z,20.07
2019-05-21T18:27:10.305Z,20.73
2019-05-21T18:29:39.204Z,22.00
2019-05-21T18:32:08.165Z,20.40
2019-05-21T18:34:37.048Z,20.87
2019-05-21T18:37:05.896Z,21.67
2019-05-21T18:39:36.143Z,21.70
2019-05-21T18:42:19.685Z,21.10
2019-05-21T18:44:35.763Z,21.50
2019-05-21T18:47:04.717Z,22.07
2019-05-21T18:49:33.550Z,21.57
2019-05-21T18:52:02.402Z,22.43
2019-05-21T18:54:31.295Z,22.23
2019-05-21T18:57:00.138Z,22.77
2019-05-21T18:59:29.034Z,22.60
2019-05-21T19:01:57.876Z,21.67
2019-05-21T19:04:26.754Z,22.20
2019-05-21T19:06:55.740Z,22.50
2019-05-21T19:09:24.778Z,21.87
2019-05-21T19:11:53.710Z,22.47
2019-05-21T19:14:22.660Z,22.00
2019-05-21T19:16:51.510Z,21.57
2019-05-21T19:19:20.419Z,22.10
2019-05-21T19:21:49.283Z,22.40
2019-05-21T19:24:18.244Z,23.03
2019-05-21T19:26:47.103Z,22.50
2019-05-21T19:29:15.953Z,23.17
2019-05-21T19:31:44.852Z,23.83
2019-05-21T19:34:13.846Z,24.00
2019-05-21T19:36:42.748Z,24.97
2019-05-21T19:39:11.600Z,26.63
2019-05-21T19:41:40.467Z,25.73
2019-05-21T19:44:09.352Z,26.47
2019-05-21T19:46:38.251Z,26.60
2019-05-21T19:49:07.128Z,25.03
2019-05-21T19:51:36.043Z,25.57
2019-05-21T19:54:04.926Z,28.20
2019-05-21T19:56:36.375Z,25.23
2019-05-21T19:59:04.299Z,25.70
2019-05-21T20:01:33.837Z,25.87
2019-05-21T20:04:02.890Z,26.73
2019-05-21T20:06:31.868Z,27.50
2019-05-21T20:09:01.012Z,26.23
2019-05-21T20:11:30.883Z,27.50
2019-05-21T20:13:59.723Z,25.40
2019-05-21T20:16:28.627Z,27.67
2019-05-21T20:18:57.897Z,26.67
2019-05-21T20:21:27.711Z,27.43
2019-05-21T20:23:56.610Z,27.40
2019-05-21T20:26:27.215Z,26.13
2019-05-21T20:28:56.150Z,26.73
2019-05-21T20:31:25.028Z,26.77
2019-05-21T20:33:53.877Z,27.83
2019-05-21T20:36:23.066Z,26.47
2019-05-21T20:38:52.559Z,26.90
2019-05-21T20:41:22.788Z,26.83
2019-05-21T20:43:58.982Z,26.30
2019-05-21T20:46:22.743Z,26.50
2019-05-21T20:48:52.506Z,26.37
2019-05-21T20:51:21.408Z,26.23
2019-05-21T20:53:50.244Z,25.57
2019-05-21T20:56:19.155Z,27.70
2019-05-21T20:58:48.024Z,26.50
2019-05-21T21:01:16.927Z,26.10
2019-05-21T21:03:45.835Z,26.63
2019-05-21T21:06:14.856Z,27.07
2019-05-21T21:08:44.103Z,27.70
2019-05-21T21:11:14.025Z,25.83
2019-05-21T21:13:42.979Z,26.50
2019-05-21T21:16:11.915Z,26.50
2019-05-21T21:18:40.760Z,27.07
2019-05-21T21:21:09.847Z,27.67
2019-05-21T21:23:40.793Z,27.07
2019-05-21T21:26:09.859Z,26.90
2019-05-21T21:28:38.772Z,26.90
2019-05-21T21:31:07.993Z,26.33
2019-05-21T21:33:36.842Z,28.70
2019-05-21T21:36:05.811Z,27.40
2019-05-21T21:38:38.013Z,26.47
2019-05-21T21:41:07.659Z,27.07
2019-05-21T21:43:36.505Z,27.40
2019-05-21T21:46:05.398Z,27.33
2019-05-21T21:48:35.013Z,26.50
2019-05-21T21:51:04.342Z,28.13
2019-05-21T21:53:33.687Z,28.10
2019-05-21T21:56:02.530Z,29.03
2019-05-21T21:58:31.429Z,26.90
2019-05-21T22:01:25.529Z,26.33
2019-05-21T22:03:56.475Z,26.80
2019-05-21T22:06:25.823Z,27.03
2019-05-21T22:08:54.832Z,26.27
2019-05-21T22:11:23.790Z,26.73
2019-05-21T22:13:52.973Z,27.53
2019-05-21T22:16:22.056Z,28.20
2019-05-21T22:18:51.352Z,26.20
2019-05-21T22:21:21.011Z,27.93
2019-05-21T22:23:50.589Z,26.63
2019-05-21T22:26:19.517Z,26.83
2019-05-21T22:28:48.411Z,27.43
2019-05-21T22:31:17.307Z,28.00
2019-05-21T22:33:46.195Z,27.20
2019-05-21T22:36:15.150Z,27.93
2019-05-21T22:38:44.231Z,26.90
2019-05-21T22:41:13.088Z,26.20
2019-05-21T22:43:41.998Z,26.73
2019-05-21T22:46:10.869Z,26.53
2019-05-21T22:48:39.754Z,28.10
2019-05-21T22:51:08.726Z,25.73
2019-05-21T22:53:37.623Z,27.10
2019-05-21T22:56:06.480Z,28.17
2019-05-21T22:58:35.384Z,27.97
2019-05-21T23:01:06.208Z,26.53
2019-05-21T23:03:35.185Z,27.67
2019-05-21T23:06:04.128Z,27.30
2019-05-21T23:08:33.204Z,26.13
2019-05-21T23:11:02.052Z,27.43
2019-05-21T23:13:30.985Z,25.50
2019-05-21T23:15:59.803Z,26.17
2019-05-21T23:18:28.971Z,27.13
2019-05-21T23:20:59.054Z,27.43
2019-05-21T23:23:28.344Z,26.13
2019-05-21T23:25:58.515Z,26.03
2019-05-21T23:28:28.317Z,27.80
2019-05-21T23:30:57.504Z,27.20
2019-05-21T23:33:27.350Z,27.70
2019-05-21T23:35:56.885Z,26.13
2019-05-21T23:38:26.071Z,27.23
2019-05-21T23:40:55.428Z,27.17
2019-05-21T23:43:24.934Z,25.90
2019-05-21T23:45:53.819Z,26.23
2019-05-21T23:48:23.031Z,26.07
2019-05-21T23:50:52.090Z,25.93
2019-05-21T23:53:20.979Z,27.17
2019-05-21T23:55:50.471Z,27.60
2019-05-21T23:58:19.841Z,27.20
